Time;durP1;ratioP1;P1;durP2;ratioP2;P2;SDS_P1;SDS_P2;PMS_P1;PMS_P2;Temp;Humidity;BMP_temperature;BMP_pressure;BME280_temperature;BME280_humidity;BME280_pressure;Samples;Min_cycle;Max_cycle;Signal;HPM_P1;HPM_P2
2023/09/20 00:02:26;;;;;;;32.13;16.95;;;23.10;95.70;;;;;;5032953;28;20045;-68
2023/09/20 00:05:30;;;;;;;36.13;16.10;;;23.20;95.80;;;;;;5033019;28;20060;-68
2023/09/20 00:08:37;;;;;;;41.15;18.20;;;23.10;95.90;;;;;;5032846;28;20060;-68
2023/09/20 00:11:44;;;;;;;34.10;16.98;;;23.10;95.90;;;;;;5032281;28;20401;-67
2023/09/20 00:14:49;;;;;;;30.02;17.63;;;23.10;95.90;;;;;;5032075;28;20041;-67
2023/09/20 00:17:54;;;;;;;38.33;18.80;;;23.10;95.80;;;;;;5032830;28;20053;-67
2023/09/20 00:21:01;;;;;;;36.90;17.23;;;23.00;96.30;;;;;;5032697;28;20405;-69
2023/09/20 00:24:05;;;;;;;34.38;18.88;;;23.10;96.40;;;;;;5032793;28;20385;-69
2023/09/20 00:27:09;;;;;;;32.53;17.88;;;23.10;96.30;;;;;;5032698;28;20044;-69
2023/09/20 00:30:17;;;;;;;36.50;17.23;;;23.10;96.20;;;;;;5031518;28;20052;-69
2023/09/20 00:33:22;;;;;;;40.38;19.05;;;23.00;96.30;;;;;;5032149;28;20061;-68
2023/09/20 00:36:26;;;;;;;33.60;17.17;;;23.00;96.20;;;;;;5032186;28;20060;-67
2023/09/20 00:39:33;;;;;;;37.53;16.42;;;22.90;96.40;;;;;;5032410;28;20052;-67
2023/09/20 00:42:37;;;;;;;30.80;17.20;;;22.90;96.10;;;;;;5031436;28;20417;-67
2023/09/20 00:45:41;;;;;;;28.05;15.82;;;23.00;96.30;;;;;;5032348;28;20044;-68
2023/09/20 00:48:50;;;;;;;36.35;16.88;;;22.90;96.00;;;;;;5031332;28;20041;-68
2023/09/20 00:51:55;;;;;;;35.42;16.75;;;22.90;96.20;;;;;;5030925;28;20516;-68
2023/09/20 00:54:59;;;;;;;39.97;17.67;;;22.80;96.30;;;;;;5031908;28;20044;-68
2023/09/20 00:58:07;;;;;;;32.88;15.68;;;22.80;96.30;;;;;;5019793;28;20417;-68
2023/09/20 01:01:12;;;;;;;37.55;16.80;;;22.80;96.30;;;;;;5031129;28;20582;-68
2023/09/20 01:04:17;;;;;;;29.15;15.73;;;22.80;96.20;;;;;;5031878;28;20505;-68
2023/09/20 01:07:21;;;;;;;33.88;15.40;;;22.70;96.60;;;;;;5031624;28;20060;-68
2023/09/20 01:10:26;;;;;;;38.47;16.23;;;22.70;96.40;;;;;;5031439;28;20512;-68
2023/09/20 01:13:30;;;;;;;35.78;15.68;;;22.70;96.20;;;;;;5031734;28;20056;-68
2023/09/20 01:16:33;;;;;;;29.45;14.77;;;22.70;96.10;;;;;;5031730;28;20052;-68
2023/09/20 01:19:38;;;;;;;34.10;15.15;;;22.70;96.40;;;;;;5031644;28;20524;-68
2023/09/20 01:22:41;;;;;;;30.98;14.40;;;22.70;96.20;;;;;;5031493;28;20060;-68
2023/09/20 01:25:46;;;;;;;30.65;14.90;;;22.70;96.10;;;;;;5030919;28;20049;-68
2023/09/20 01:28:50;;;;;;;29.70;14.40;;;22.80;96.00;;;;;;5031330;28;20049;-68
2023/09/20 01:32:00;;;;;;;35.55;14.82;;;22.90;95.80;;;;;;5031098;28;20051;-68
2023/09/20 01:35:04;;;;;;;27.38;16.58;;;22.90;95.70;;;;;;5031031;28;20060;-68
2023/09/20 01:38:11;;;;;;;37.08;16.08;;;23.00;95.80;;;;;;5031450;28;20048;-68
2023/09/20 01:41:18;;;;;;;30.65;14.98;;;22.90;95.70;;;;;;5031143;28;20060;-68
2023/09/20 01:44:23;;;;;;;27.88;14.73;;;22.90;95.90;;;;;;5030457;28;20049;-68
2023/09/20 01:47:26;;;;;;;28.75;15.55;;;22.80;96.00;;;;;;5031363;28;20398;-68
2023/09/20 01:50:31;;;;;;;29.75;16.35;;;22.80;96.00;;;;;;5030404;28;20504;-68
2023/09/20 01:53:36;;;;;;;27.42;18.23;;;22.60;96.40;;;;;;5030775;28;20060;-68
2023/09/20 01:56:40;;;;;;;33.60;17.33;;;22.60;96.50;;;;;;5030196;28;20511;-68
2023/09/20 01:59:44;;;;;;;31.13;16.25;;;22.70;96.50;;;;;;5030189;28;20068;-68
2023/09/20 02:03:07;;;;;;;28.55;15.82;;;22.60;96.60;;;;;;5029937;28;20420;-68
2023/09/20 02:06:11;;;;;;;29.65;15.57;;;22.60;96.70;;;;;;5031048;28;20056;-68
2023/09/20 02:09:18;;;;;;;31.30;16.00;;;22.50;97.00;;;;;;5029863;28;20658;-68
2023/09/20 02:12:22;;;;;;;43.35;17.58;;;22.50;97.10;;;;;;5029781;28;20056;-68
2023/09/20 02:15:31;;;;;;;26.55;16.00;;;22.40;97.10;;;;;;5031046;28;20040;-68
2023/09/20 02:18:38;;;;;;;33.30;16.45;;;22.40;97.20;;;;;;5030963;28;20413;-68
2023/09/20 02:21:42;;;;;;;30.00;15.68;;;22.40;97.20;;;;;;5029933;28;20048;-68
2023/09/20 02:24:46;;;;;;;34.67;16.70;;;22.50;97.10;;;;;;5029943;28;20500;-68
2023/09/20 02:27:51;;;;;;;31.45;16.17;;;22.40;97.00;;;;;;5030042;28;20052;-68
2023/09/20 02:30:55;;;;;;;32.92;15.82;;;22.40;97.20;;;;;;5030651;28;20125;-68
2023/09/20 02:34:03;;;;;;;37.22;15.13;;;22.50;97.00;;;;;;5030537;28;20072;-68
2023/09/20 02:37:07;;;;;;;33.47;15.00;;;22.40;96.90;;;;;;5031164;28;20051;-68
2023/09/20 02:40:13;;;;;;;27.67;15.65;;;22.30;96.90;;;;;;5022492;28;20374;-68
2023/09/20 02:43:17;;;;;;;34.53;16.52;;;22.30;97.00;;;;;;5033425;28;20048;-68
2023/09/20 02:46:22;;;;;;;27.80;16.05;;;22.20;97.00;;;;;;5033756;28;20496;-68
2023/09/20 02:49:26;;;;;;;30.60;16.30;;;22.10;97.30;;;;;;5034192;28;20036;-68
2023/09/20 02:52:33;;;;;;;26.17;16.05;;;22.00;97.50;;;;;;5033114;28;20056;-68
2023/09/20 02:55:39;;;;;;;26.73;16.13;;;22.10;97.70;;;;;;5034353;28;20045;-68
2023/09/20 02:58:47;;;;;;;29.20;15.80;;;22.10;97.50;;;;;;5033170;28;20428;-68
2023/09/20 03:01:52;;;;;;;33.50;16.23;;;22.20;97.40;;;;;;5033270;28;20049;-68
2023/09/20 03:04:57;;;;;;;32.92;15.23;;;22.50;97.30;;;;;;5034167;28;20056;-68
2023/09/20 03:08:04;;;;;;;33.60;14.88;;;22.20;97.20;;;;;;5034013;28;20060;-68
2023/09/20 03:11:09;;;;;;;28.55;15.50;;;22.10;97.30;;;;;;5032616;28;20044;-68
2023/09/20 03:14:13;;;;;;;29.60;14.25;;;22.20;97.20;;;;;;5021646;28;20512;-68
2023/09/20 03:17:19;;;;;;;26.52;14.52;;;22.20;97.10;;;;;;5033939;28;20504;-68
2023/09/20 03:20:25;;;;;;;29.55;15.90;;;22.20;97.00;;;;;;5033039;28;20044;-68
2023/09/20 03:23:42;;;;;;;29.33;15.30;;;22.10;97.10;;;;;;5033016;28;20052;-68
2023/09/20 03:26:46;;;;;;;31.00;15.57;;;22.20;97.40;;;;;;5032659;28;20045;-69
2023/09/20 03:29:52;;;;;;;26.25;15.40;;;22.10;96.90;;;;;;5032867;28;20040;-68
2023/09/20 03:32:58;;;;;;;23.33;14.13;;;22.10;97.10;;;;;;5032420;28;20512;-68
2023/09/20 03:36:09;;;;;;;34.17;14.13;;;22.10;97.10;;;;;;5032780;28;20060;-68
2023/09/20 03:39:17;;;;;;;28.38;15.40;;;22.20;97.10;;;;;;5032660;28;20053;-68
2023/09/20 03:42:21;;;;;;;26.42;15.27;;;22.20;97.10;;;;;;5033420;28;20045;-68
2023/09/20 03:45:28;;;;;;;28.13;15.85;;;22.20;97.10;;;;;;5032325;28;20052;-68
2023/09/20 03:48:33;;;;;;;28.70;16.80;;;22.30;97.00;;;;;;5031900;28;20045;-68
2023/09/20 03:51:37;;;;;;;34.15;17.80;;;22.20;96.90;;;;;;5031821;28;20053;-68
2023/09/20 03:54:41;;;;;;;34.50;17.77;;;22.70;96.90;;;;;;5032307;28;20037;-68
2023/09/20 03:57:45;;;;;;;32.53;16.88;;;22.30;96.80;;;;;;5032871;28;20044;-68
2023/09/20 04:00:49;;;;;;;36.13;17.17;;;22.20;96.50;;;;;;5031814;28;20060;-68
2023/09/20 04:03:52;;;;;;;39.55;14.65;;;22.00;96.50;;;;;;5032136;28;20051;-68
2023/09/20 04:06:57;;;;;;;33.75;13.57;;;21.80;96.00;;;;;;5054846;28;20108;-68
2023/09/20 04:10:02;;;;;;;26.63;9.90;;;21.70;95.20;;;;;;5032112;28;20577;-68
2023/09/20 04:13:06;;;;;;;30.17;10.43;;;21.60;95.10;;;;;;5032465;28;20052;-68
2023/09/20 04:16:11;;;;;;;18.55;9.68;;;21.60;94.60;;;;;;5032055;28;20516;-68
2023/09/20 04:19:16;;;;;;;25.38;10.75;;;21.70;94.80;;;;;;5031866;28;20048;-68
2023/09/20 04:22:19;;;;;;;20.58;10.43;;;21.90;94.60;;;;;;5031692;28;20048;-68
2023/09/20 04:25:23;;;;;;;22.55;10.07;;;22.00;94.30;;;;;;5032625;28;20064;-68
2023/09/20 04:28:27;;;;;;;27.85;10.75;;;22.10;94.10;;;;;;5031767;28;20040;-68
2023/09/20 04:31:33;;;;;;;25.52;10.25;;;22.20;93.80;;;;;;5031581;28;20072;-68
2023/09/20 04:34:40;;;;;;;21.13;10.13;;;22.20;93.80;;;;;;5031265;28;20068;-68
2023/09/20 04:37:45;;;;;;;20.60;10.32;;;22.20;93.60;;;;;;5031215;28;20425;-68
2023/09/20 04:40:50;;;;;;;33.00;11.20;;;22.20;93.40;;;;;;5032063;28;20362;-68
2023/09/20 04:43:54;;;;;;;27.00;11.38;;;22.20;93.50;;;;;;5031339;28;20048;-68
2023/09/20 04:46:58;;;;;;;20.52;11.38;;;22.20;93.60;;;;;;5031132;28;20041;-68
2023/09/20 04:50:04;;;;;;;26.58;12.18;;;22.10;93.50;;;;;;5031537;28;20052;-68
2023/09/20 04:53:10;;;;;;;28.80;11.82;;;22.00;93.90;;;;;;5031928;28;20048;-68
2023/09/20 04:56:16;;;;;;;23.55;11.95;;;21.90;94.00;;;;;;5054413;28;20044;-69
2023/09/20 04:59:20;;;;;;;20.17;12.48;;;21.90;94.20;;;;;;5032452;28;20045;-68
2023/09/20 05:02:23;;;;;;;27.35;13.13;;;21.80;94.30;;;;;;5030684;28;20406;-68
2023/09/20 05:05:28;;;;;;;26.13;12.15;;;21.80;94.40;;;;;;5031766;28;20048;-68
2023/09/20 05:08:32;;;;;;;27.77;12.07;;;21.80;94.20;;;;;;5031680;28;20044;-68
2023/09/20 05:11:36;;;;;;;31.30;12.63;;;21.80;94.50;;;;;;5030912;28;20056;-68
2023/09/20 05:14:42;;;;;;;33.42;11.43;;;21.90;94.10;;;;;;5031841;28;20052;-68
2023/09/20 05:17:48;;;;;;;43.78;12.77;;;21.80;94.20;;;;;;5030588;28;20393;-68
2023/09/20 05:20:53;;;;;;;32.03;12.45;;;21.80;94.50;;;;;;5030348;28;20048;-68
2023/09/20 05:23:57;;;;;;;29.33;12.02;;;21.80;94.40;;;;;;5030689;28;20704;-60
2023/09/20 05:27:01;;;;;;;48.65;13.55;;;21.80;94.50;;;;;;5029875;28;20064;-59
2023/09/20 05:30:06;;;;;;;34.88;12.27;;;21.90;94.30;;;;;;5031251;28;20500;-60
2023/09/20 05:33:11;;;;;;;32.83;12.90;;;21.80;94.40;;;;;;5030427;28;20052;-60
2023/09/20 05:36:16;;;;;;;30.45;11.95;;;22.10;94.30;;;;;;5030964;28;20104;-60
2023/09/20 05:39:20;;;;;;;32.83;13.70;;;22.10;94.20;;;;;;5031150;28;20061;-60
2023/09/20 05:42:23;;;;;;;40.33;12.63;;;22.10;94.20;;;;;;5030620;28;20412;-60
2023/09/20 05:45:27;;;;;;;33.75;12.25;;;22.10;94.20;;;;;;5031139;28;20397;-60
2023/09/20 05:48:31;;;;;;;26.15;12.13;;;22.10;94.10;;;;;;5030724;28;20513;-61
2023/09/20 05:51:37;;;;;;;32.28;12.15;;;22.10;94.10;;;;;;5030557;28;20520;-60
2023/09/20 05:54:42;;;;;;;38.88;13.95;;;22.10;94.30;;;;;;5030596;28;20048;-60
2023/09/20 05:57:46;;;;;;;50.75;13.90;;;22.10;94.50;;;;;;5029907;28;20040;-60
2023/09/20 06:00:51;;;;;;;39.53;13.00;;;22.10;94.60;;;;;;5030597;28;20056;-60
2023/09/20 06:03:58;;;;;;;60.90;15.20;;;22.10;94.80;;;;;;5030859;28;20077;-60
2023/09/20 06:07:04;;;;;;;45.88;13.88;;;22.20;94.70;;;;;;5030425;28;20045;-60
2023/09/20 06:10:09;;;;;;;50.28;14.60;;;22.20;94.80;;;;;;5030615;28;20041;-60
2023/09/20 06:13:12;;;;;;;49.45;15.55;;;22.30;94.80;;;;;;5032392;28;20060;-60
2023/09/20 06:16:17;;;;;;;37.38;15.00;;;22.40;94.90;;;;;;5034341;28;20048;-59
2023/09/20 06:19:20;;;;;;;37.95;15.32;;;22.40;94.70;;;;;;5034714;28;20052;-58
2023/09/20 06:22:29;;;;;;;34.47;14.40;;;22.60;94.60;;;;;;5033824;28;20048;-60
2023/09/20 06:25:34;;;;;;;44.35;16.83;;;22.60;94.60;;;;;;5034340;28;20581;-60
2023/09/20 06:28:44;;;;;;;53.38;19.02;;;22.70;94.80;;;;;;5034400;28;20433;-60
2023/09/20 06:31:48;;;;;;;46.33;20.30;;;22.90;94.90;;;;;;5034280;28;20057;-60
2023/09/20 06:34:52;;;;;;;43.42;18.15;;;23.00;94.70;;;;;;5034072;28;20061;-59
2023/09/20 06:37:58;;;;;;;40.42;19.08;;;23.10;94.50;;;;;;5033331;28;20049;-59
2023/09/20 06:41:04;;;;;;;42.25;18.73;;;23.20;95.00;;;;;;5034094;28;20056;-60
2023/09/20 06:44:08;;;;;;;53.13;20.08;;;23.40;94.50;;;;;;5034327;28;20049;-60
2023/09/20 06:47:12;;;;;;;62.42;22.20;;;23.90;93.80;;;;;;5034167;28;20053;-60
2023/09/20 06:50:17;;;;;;;56.50;24.13;;;24.00;93.90;;;;;;5034233;28;20040;-60
2023/09/20 06:53:23;;;;;;;52.58;24.83;;;24.20;93.00;;;;;;5033925;28;20056;-60
2023/09/20 06:56:27;;;;;;;46.67;21.60;;;24.30;92.80;;;;;;5033864;28;20053;-60
2023/09/20 06:59:33;;;;;;;36.15;18.35;;;25.20;93.20;;;;;;5033817;28;20060;-60
2023/09/20 07:02:37;;;;;;;40.35;20.55;;;24.50;93.00;;;;;;5033789;28;20059;-59
2023/09/20 07:05:41;;;;;;;46.80;20.48;;;24.70;92.80;;;;;;5033489;28;20057;-59
2023/09/20 07:08:47;;;;;;;49.40;18.58;;;24.70;92.30;;;;;;5033872;28;20041;-59
2023/09/20 07:11:51;;;;;;;35.92;19.13;;;24.80;92.30;;;;;;5032564;28;20044;-58
2023/09/20 07:14:55;;;;;;;36.25;19.60;;;24.80;92.50;;;;;;5033547;28;20045;-59
2023/09/20 07:18:00;;;;;;;44.88;18.13;;;22.00;91.50;;;;;;5033074;28;20052;-60
2023/09/20 07:21:04;;;;;;;28.85;14.68;;;25.00;91.70;;;;;;5033259;28;20060;-61
2023/09/20 07:24:12;;;;;;;33.40;13.40;;;25.00;91.90;;;;;;5031804;28;20036;-60
2023/09/20 07:27:16;;;;;;;37.70;13.52;;;25.00;91.30;;;;;;5033504;28;20048;-60
2023/09/20 07:30:22;;;;;;;28.17;13.32;;;25.10;91.40;;;;;;5033214;28;20052;-60
2023/09/20 07:33:29;;;;;;;26.98;11.90;;;26.50;92.00;;;;;;5032645;28;20056;-60
2023/09/20 07:36:37;;;;;;;43.53;14.10;;;25.90;92.00;;;;;;5033153;28;20037;-60
2023/09/20 07:39:41;;;;;;;39.90;13.95;;;25.80;91.60;;;;;;5033190;28;20053;-60
2023/09/20 07:42:46;;;;;;;35.67;13.82;;;25.50;91.80;;;;;;5033159;28;20041;-60
2023/09/20 07:45:50;;;;;;;18.50;11.35;;;25.60;91.70;;;;;;5032869;28;20500;-60
2023/09/20 07:48:55;;;;;;;38.25;12.32;;;25.80;91.80;;;;;;5032883;28;20052;-61
2023/09/20 07:51:58;;;;;;;31.40;11.73;;;26.20;91.00;;;;;;5032595;28;20068;-60
2023/09/20 07:55:04;;;;;;;36.90;13.18;;;26.20;91.20;;;;;;5033060;28;20048;-60
2023/09/20 07:58:11;;;;;;;21.05;11.45;;;26.40;90.80;;;;;;5033350;28;20650;-60
2023/09/20 08:01:21;;;;;;;29.83;11.38;;;26.20;91.00;;;;;;5032378;28;20052;-60
2023/09/20 08:04:25;;;;;;;20.95;9.38;;;26.40;91.00;;;;;;5032698;28;20056;-60
2023/09/20 08:07:29;;;;;;;20.00;9.70;;;26.60;90.90;;;;;;5032394;28;20076;-59
2023/09/20 08:10:37;;;;;;;33.13;10.20;;;26.70;90.80;;;;;;5031843;28;20048;-60
2023/09/20 08:13:41;;;;;;;25.95;9.20;;;26.90;90.70;;;;;;5032140;28;20623;-61
2023/09/20 08:16:45;;;;;;;17.75;8.90;;;27.10;91.00;;;;;;5031973;28;20048;-61
2023/09/20 08:19:49;;;;;;;29.52;10.25;;;27.30;90.60;;;;;;5032170;28;20048;-60
2023/09/20 09:00:25;;;;;;;24.15;8.88;;;27.50;85.70;;;;;;5031535;28;20057;-60
2023/09/20 09:03:31;;;;;;;24.50;9.02;;;27.50;86.50;;;;;;5031453;28;20040;-60
2023/09/20 09:06:35;;;;;;;11.77;7.25;;;27.40;87.00;;;;;;5031544;28;20044;-59
2023/09/20 09:09:40;;;;;;;20.92;8.93;;;27.40;87.00;;;;;;5031051;28;20044;-60
2023/09/20 09:12:48;;;;;;;26.23;8.20;;;27.30;87.20;;;;;;5031225;28;20071;-59
2023/09/20 09:15:51;;;;;;;22.50;9.68;;;27.30;87.90;;;;;;5031188;28;20045;-59
2023/09/20 09:18:55;;;;;;;26.08;10.07;;;27.20;88.70;;;;;;5031159;28;20044;-60
2023/09/20 09:22:01;;;;;;;24.58;9.52;;;27.20;88.70;;;;;;5030953;28;20066;-61
2023/09/20 09:25:13;;;;;;;31.88;9.98;;;27.20;88.20;;;;;;5030907;28;20036;-60
2023/09/20 09:28:16;;;;;;;24.75;9.43;;;27.20;87.80;;;;;;5031128;28;20044;-59
2023/09/20 09:31:24;;;;;;;27.77;7.93;;;27.20;86.20;;;;;;5030804;28;20045;-59
2023/09/20 09:34:28;;;;;;;31.65;8.27;;;27.10;85.90;;;;;;5030717;28;20078;-59
2023/09/20 09:37:33;;;;;;;29.95;8.95;;;27.10;85.90;;;;;;5031170;28;20044;-60
2023/09/20 09:40:55;;;;;;;31.38;9.45;;;27.10;86.10;;;;;;5030687;28;20044;-61
2023/09/20 09:43:59;;;;;;;26.35;9.95;;;27.10;86.90;;;;;;5030883;28;20036;-60
2023/09/20 09:47:04;;;;;;;27.88;12.15;;;27.20;85.20;;;;;;5030234;28;20048;-65
2023/09/20 09:50:10;;;;;;;26.50;11.50;;;27.10;85.80;;;;;;5030569;28;20397;-63
2023/09/20 09:53:15;;;;;;;33.63;14.73;;;27.20;86.40;;;;;;5030702;28;20439;-62
2023/09/20 09:56:21;;;;;;;33.22;12.35;;;27.20;85.80;;;;;;5029880;28;20044;-63
2023/09/20 09:59:26;;;;;;;36.83;12.05;;;27.30;84.30;;;;;;5030877;28;20426;-65
2023/09/20 10:02:32;;;;;;;25.92;10.55;;;27.50;83.00;;;;;;5030576;28;20628;-60
2023/09/20 10:05:41;;;;;;;18.70;8.70;;;27.50;80.60;;;;;;5030496;28;20044;-60
2023/09/20 10:08:49;;;;;;;13.52;7.15;;;27.60;81.20;;;;;;5030830;28;20053;-60
2023/09/20 10:11:53;;;;;;;19.45;7.80;;;27.60;80.80;;;;;;5030426;28;20056;-61
2023/09/20 10:14:59;;;;;;;13.25;6.60;;;27.70;80.30;;;;;;5030348;28;20064;-60
2023/09/20 10:18:03;;;;;;;18.38;6.65;;;27.70;78.60;;;;;;5030334;28;20052;-60
2023/09/20 10:21:20;;;;;;;20.70;7.78;;;27.70;77.00;;;;;;5030392;28;20045;-61
2023/09/20 10:24:29;;;;;;;15.18;6.05;;;27.70;77.30;;;;;;5030240;28;20052;-61
2023/09/20 10:27:34;;;;;;;16.42;6.15;;;27.80;76.50;;;;;;5030254;28;20040;-60
2023/09/20 10:30:56;;;;;;;15.23;6.72;;;27.80;76.70;;;;;;5029941;28;20049;-59
2023/09/20 10:34:01;;;;;;;17.52;6.88;;;27.90;76.80;;;;;;5029817;28;20072;-60
2023/09/20 10:37:09;;;;;;;13.95;6.15;;;28.00;76.30;;;;;;5030251;28;20041;-60
2023/09/20 10:40:15;;;;;;;15.27;6.47;;;28.00;76.40;;;;;;5030150;28;20072;-60
2023/09/20 10:43:46;;;;;;;12.20;6.47;;;28.10;76.30;;;;;;5030494;28;20469;-60
2023/09/20 10:46:50;;;;;;;18.90;6.43;;;28.10;76.00;;;;;;5030396;28;20497;-62
2023/09/20 10:49:56;;;;;;;18.67;6.15;;;28.20;76.10;;;;;;5029972;28;20050;-60
2023/09/20 10:53:00;;;;;;;15.68;6.88;;;28.20;76.10;;;;;;5030027;28;20068;-60
2023/09/20 10:56:05;;;;;;;26.08;6.18;;;28.20;75.00;;;;;;5030194;28;20154;-60
2023/09/20 10:59:16;;;;;;;22.27;7.53;;;28.30;72.50;;;;;;5032197;28;20052;-61
2023/09/20 11:02:20;;;;;;;14.45;7.47;;;28.40;72.80;;;;;;5033820;28;20070;-60
2023/09/20 11:05:26;;;;;;;18.85;8.13;;;28.60;73.50;;;;;;5033653;28;20048;-60
2023/09/20 11:08:30;;;;;;;13.77;7.45;;;28.60;73.40;;;;;;5033757;28;20059;-63
2023/09/20 11:11:37;;;;;;;21.77;7.35;;;28.70;73.90;;;;;;5033454;28;20049;-60
2023/09/20 11:14:42;;;;;;;12.48;7.28;;;28.70;74.20;;;;;;5033826;28;20569;-61
2023/09/20 11:17:47;;;;;;;14.95;7.38;;;28.70;73.20;;;;;;5033365;28;20108;-60
2023/09/20 11:20:51;;;;;;;11.93;6.60;;;28.60;73.50;;;;;;5033411;28;20052;-60
2023/09/20 11:23:55;;;;;;;17.27;7.40;;;28.60;73.90;;;;;;5032579;28;20405;-60
2023/09/20 11:26:59;;;;;;;13.38;7.70;;;28.60;74.20;;;;;;5033254;28;20052;-60
2023/09/20 11:30:05;;;;;;;12.52;6.82;;;28.60;73.70;;;;;;5032218;28;20057;-60
2023/09/20 11:33:26;;;;;;;14.32;7.07;;;28.60;73.40;;;;;;5033040;28;20052;-59
2023/09/20 11:36:37;;;;;;;15.60;6.72;;;28.50;73.60;;;;;;5033157;28;20045;-60
2023/09/20 11:39:43;;;;;;;13.93;5.78;;;28.50;73.80;;;;;;5032996;28;20063;-60
2023/09/20 11:42:47;;;;;;;16.33;6.25;;;28.40;73.30;;;;;;5033096;28;20080;-60
2023/09/20 11:45:53;;;;;;;14.85;6.28;;;28.40;72.60;;;;;;5032962;28;20049;-60
2023/09/20 11:49:02;;;;;;;11.30;6.00;;;28.40;72.90;;;;;;5032903;28;20052;-60
2023/09/20 11:52:07;;;;;;;17.65;7.03;;;28.30;72.90;;;;;;5032598;28;20505;-60
2023/09/20 11:55:12;;;;;;;14.43;6.75;;;28.30;72.10;;;;;;5032637;28;20052;-60
2023/09/20 11:58:20;;;;;;;26.05;6.32;;;28.20;72.70;;;;;;5032000;28;20180;-60
2023/09/20 12:01:25;;;;;;;18.17;5.75;;;28.20;71.40;;;;;;5032504;28;20049;-60
2023/09/20 12:04:30;;;;;;;38.45;6.93;;;28.30;71.40;;;;;;5032624;28;20056;-60
2023/09/20 12:07:34;;;;;;;23.73;6.40;;;28.30;71.50;;;;;;5032738;28;20390;-60
2023/09/20 12:10:40;;;;;;;28.83;6.07;;;28.30;70.50;;;;;;5031867;28;20048;-60
2023/09/20 12:13:45;;;;;;;36.95;6.95;;;28.40;71.00;;;;;;5032449;28;20057;-60
2023/09/20 12:16:50;;;;;;;18.55;6.30;;;28.40;71.90;;;;;;5032603;28;20044;-60
2023/09/20 12:19:54;;;;;;;36.65;8.80;;;28.50;72.10;;;;;;5032085;28;20397;-59
2023/09/20 12:23:01;;;;;;;34.13;9.15;;;28.60;72.30;;;;;;5032389;28;20044;-59
2023/09/20 12:26:08;;;;;;;42.53;10.02;;;28.60;73.10;;;;;;5032374;28;20048;-59
2023/09/20 12:29:12;;;;;;;33.95;10.25;;;28.60;73.40;;;;;;5032385;28;20096;-59
2023/09/20 12:32:16;;;;;;;33.35;11.57;;;28.60;73.70;;;;;;5031250;28;20044;-59
2023/09/20 12:35:21;;;;;;;35.85;11.80;;;28.60;74.00;;;;;;5031916;28;20056;-60
2023/09/20 12:38:29;;;;;;;27.75;11.60;;;28.60;74.50;;;;;;5031277;28;20044;-60
2023/09/20 12:41:37;;;;;;;39.72;12.63;;;28.60;74.60;;;;;;5031913;28;20064;-60
2023/09/20 12:44:41;;;;;;;27.42;11.20;;;28.60;74.80;;;;;;5031922;28;20109;-61
2023/09/20 12:47:45;;;;;;;35.25;13.20;;;28.60;74.70;;;;;;5029105;28;20048;-60
2023/09/20 12:50:49;;;;;;;34.15;14.57;;;28.60;75.10;;;;;;5030147;28;20049;-60
2023/09/20 12:53:53;;;;;;;38.45;14.07;;;28.60;75.40;;;;;;5031135;28;20516;-61
2023/09/20 12:57:16;;;;;;;25.15;11.60;;;28.70;74.80;;;;;;5031208;28;20531;-61
2023/09/20 13:00:20;;;;;;;29.25;12.40;;;28.70;74.90;;;;;;5031530;28;20063;-62
2023/09/20 13:03:28;;;;;;;24.08;10.65;;;28.70;75.00;;;;;;5031616;28;20057;-60
2023/09/20 13:06:36;;;;;;;23.10;11.60;;;28.70;75.00;;;;;;5031332;28;20434;-60
2023/09/20 13:09:42;;;;;;;32.42;12.50;;;28.70;74.90;;;;;;5030675;28;20045;-60
2023/09/20 13:12:47;;;;;;;57.00;13.65;;;29.00;75.10;;;;;;5030617;28;20393;-60
2023/09/20 13:15:52;;;;;;;80.85;16.77;;;30.80;73.30;;;;;;5030478;28;20053;-59
2023/09/20 13:18:56;;;;;;;41.30;15.13;;;32.50;71.00;;;;;;5030924;28;20504;-59
2023/09/20 13:22:01;;;;;;;37.33;13.75;;;33.40;68.70;;;;;;5029979;28;20401;-59
2023/09/20 13:25:09;;;;;;;42.55;12.77;;;34.10;67.40;;;;;;5031297;28;20547;-61
2023/09/20 13:28:13;;;;;;;35.28;12.63;;;34.20;66.50;;;;;;5031332;28;20589;-60
2023/09/20 13:31:17;;;;;;;46.33;11.95;;;34.30;66.40;;;;;;5030912;28;20040;-60
2023/09/20 13:34:22;;;;;;;34.70;11.02;;;33.50;66.50;;;;;;5030770;28;20052;-60
2023/09/20 13:37:27;;;;;;;49.28;13.50;;;32.70;68.20;;;;;;5030902;28;20052;-60
2023/09/20 13:40:31;;;;;;;39.08;11.73;;;31.90;69.90;;;;;;5031019;28;20041;-60
2023/09/20 13:43:38;;;;;;;33.78;12.13;;;31.30;71.20;;;;;;5031158;28;20053;-60
2023/09/20 13:46:45;;;;;;;29.10;11.50;;;30.90;72.20;;;;;;5030650;28;20068;-60
2023/09/20 13:49:50;;;;;;;30.50;11.35;;;30.60;72.50;;;;;;5030635;28;20037;-61
2023/09/20 13:52:53;;;;;;;24.55;10.68;;;30.30;72.80;;;;;;5030451;28;20048;-60
2023/09/20 13:56:04;;;;;;;20.63;9.93;;;30.20;73.00;;;;;;5030537;28;20068;-61
2023/09/20 13:59:10;;;;;;;35.93;11.30;;;30.00;72.90;;;;;;5030944;28;20496;-62
2023/09/20 14:02:14;;;;;;;35.63;12.60;;;29.90;73.80;;;;;;5030627;28;20628;-61
2023/09/20 14:05:18;;;;;;;50.25;14.48;;;29.80;74.10;;;;;;5030963;28;20045;-62
2023/09/20 14:08:22;;;;;;;43.00;13.02;;;29.70;75.00;;;;;;5030734;28;20049;-63
2023/09/20 14:11:26;;;;;;;37.35;12.95;;;29.60;75.30;;;;;;5030661;28;20068;-61
2023/09/20 14:14:32;;;;;;;36.22;12.63;;;29.60;75.10;;;;;;5030432;28;20481;-61
2023/09/20 14:17:36;;;;;;;31.25;11.57;;;29.50;75.70;;;;;;5030061;28;20045;-60
2023/09/20 14:20:40;;;;;;;25.98;11.80;;;29.50;76.10;;;;;;5030269;28;20052;-60
2023/09/20 14:23:45;;;;;;;59.17;13.88;;;29.40;76.30;;;;;;5030399;28;20068;-60
2023/09/20 14:26:51;;;;;;;41.80;13.25;;;29.40;76.30;;;;;;5052697;28;20060;-60
2023/09/20 14:29:55;;;;;;;34.30;12.75;;;29.40;76.40;;;;;;5030117;28;20048;-60
2023/09/20 14:33:03;;;;;;;31.85;12.10;;;29.30;76.30;;;;;;5030322;28;20064;-60
2023/09/20 14:36:11;;;;;;;21.35;10.75;;;29.20;76.20;;;;;;5034341;28;20670;-60
2023/09/20 14:39:15;;;;;;;25.10;10.52;;;29.20;76.00;;;;;;5034250;28;20390;-60
2023/09/20 14:42:19;;;;;;;22.70;9.98;;;29.10;75.90;;;;;;5033859;28;20064;-60
2023/09/20 14:45:27;;;;;;;20.98;11.02;;;29.10;76.00;;;;;;5034134;28;20048;-60
2023/09/20 14:48:32;;;;;;;18.50;10.93;;;29.00;76.30;;;;;;5033746;28;20064;-60
2023/09/20 14:51:36;;;;;;;22.25;10.77;;;29.00;76.40;;;;;;5033676;28;20524;-60
2023/09/20 14:54:42;;;;;;;22.98;11.45;;;29.00;76.70;;;;;;5033680;28;20056;-60
2023/09/20 14:57:47;;;;;;;28.70;11.75;;;29.00;77.20;;;;;;5033352;28;20052;-61
2023/09/20 15:00:51;;;;;;;29.35;11.02;;;28.90;77.20;;;;;;5033338;28;20068;-60
2023/09/20 15:03:55;;;;;;;21.05;10.38;;;28.90;77.20;;;;;;5033604;28;20045;-60
2023/09/20 15:06:59;;;;;;;24.88;9.63;;;28.80;77.40;;;;;;5033253;28;20052;-60
2023/09/20 15:10:10;;;;;;;53.63;11.43;;;28.80;78.00;;;;;;5033473;28;20045;-60
2023/09/20 15:13:14;;;;;;;21.52;9.38;;;28.90;78.90;;;;;;5033511;28;20539;-60
2023/09/20 15:16:18;;;;;;;27.20;9.48;;;28.80;79.60;;;;;;5033535;28;20044;-60
2023/09/20 15:19:23;;;;;;;29.65;11.15;;;28.80;79.50;;;;;;5032470;28;20528;-59
2023/09/20 15:22:31;;;;;;;23.98;10.27;;;28.80;78.80;;;;;;5033302;28;20060;-61
2023/09/20 15:25:35;;;;;;;23.42;10.27;;;28.70;78.00;;;;;;5033294;28;20057;-61
2023/09/20 15:28:41;;;;;;;20.70;8.55;;;28.70;77.10;;;;;;5033139;28;20048;-60
2023/09/20 15:31:45;;;;;;;21.98;9.02;;;28.70;76.50;;;;;;5033380;28;20504;-59
2023/09/20 15:34:53;;;;;;;17.02;6.82;;;28.60;75.90;;;;;;5032689;28;20662;-59
2023/09/20 15:37:57;;;;;;;19.52;7.28;;;28.60;75.70;;;;;;5033288;28;20052;-59
2023/09/20 15:41:03;;;;;;;38.33;7.85;;;28.60;75.90;;;;;;5033158;28;20048;-59
2023/09/20 15:44:08;;;;;;;72.10;12.25;;;28.50;75.90;;;;;;5032941;28;20052;-59
2023/09/20 15:47:14;;;;;;;177.95;18.67;;;28.50;76.20;;;;;;5032989;28;20474;-59
2023/09/20 15:50:21;;;;;;;126.47;15.95;;;28.50;76.60;;;;;;5032632;28;20060;-59
2023/09/20 15:53:26;;;;;;;48.70;10.90;;;28.50;77.00;;;;;;5032076;28;20052;-59
2023/09/20 15:56:30;;;;;;;36.72;10.00;;;28.40;77.40;;;;;;5032871;28;20397;-60
2023/09/20 15:59:34;;;;;;;25.38;8.52;;;28.40;77.70;;;;;;5032940;28;20045;-60
2023/09/20 16:02:39;;;;;;;33.95;9.50;;;28.40;77.90;;;;;;5032952;28;20397;-59
2023/09/20 16:05:48;;;;;;;24.75;8.57;;;28.40;78.20;;;;;;5032633;28;20047;-61
2023/09/20 16:08:54;;;;;;;23.75;7.63;;;28.40;78.50;;;;;;5032895;28;20056;-60
2023/09/20 16:11:59;;;;;;;18.05;7.65;;;28.30;78.80;;;;;;5032369;28;20092;-60
2023/09/20 16:15:03;;;;;;;19.20;7.22;;;28.30;79.00;;;;;;5032251;28;20049;-60
2023/09/20 16:18:08;;;;;;;19.13;7.05;;;28.30;79.10;;;;;;5032356;28;20056;-60
2023/09/20 16:21:12;;;;;;;41.08;8.20;;;28.30;79.50;;;;;;5032134;28;20561;-60
2023/09/20 16:24:17;;;;;;;35.00;9.77;;;28.30;80.30;;;;;;5032457;28;20040;-60